sensor_id;sensor_type;location;lat;lon;timestamp;P1;durP1;ratioP1;P2;durP2;ratioP2
79539;SDS011;76655;52.122;5.406;2024-02-21T00:01:33;4.50;;;1.50;;
79539;SDS011;76655;52.122;5.406;2024-02-21T00:04:00;3.05;;;1.40;;
79539;SDS011;76655;52.122;5.406;2024-02-21T00:06:26;2.92;;;1.35;;
79539;SDS011;76655;52.122;5.406;2024-02-21T00:08:52;4.47;;;1.52;;
79539;SDS011;76655;52.122;5.406;2024-02-21T00:11:19;2.83;;;1.38;;
79539;SDS011;76655;52.122;5.406;2024-02-21T00:13:47;2.05;;;0.93;;
79539;SDS011;76655;52.122;5.406;2024-02-21T00:16:13;4.65;;;1.35;;
79539;SDS011;76655;52.122;5.406;2024-02-21T00:18:42;4.00;;;1.27;;
79539;SDS011;76655;52.122;5.406;2024-02-21T00:21:08;3.38;;;1.50;;
79539;SDS011;76655;52.122;5.406;2024-02-21T00:23:35;3.10;;;1.30;;
79539;SDS011;76655;52.122;5.406;2024-02-21T00:26:01;4.72;;;1.45;;
79539;SDS011;76655;52.122;5.406;2024-02-21T00:28:28;2.95;;;1.08;;
79539;SDS011;76655;52.122;5.406;2024-02-21T00:30:54;2.95;;;1.15;;
79539;SDS011;76655;52.122;5.406;2024-02-21T00:33:21;3.45;;;1.35;;
79539;SDS011;76655;52.122;5.406;2024-02-21T00:35:47;3.17;;;1.58;;
79539;SDS011;76655;52.122;5.406;2024-02-21T00:38:14;5.63;;;1.33;;
79539;SDS011;76655;52.122;5.406;2024-02-21T00:40:40;3.50;;;1.50;;
79539;SDS011;76655;52.122;5.406;2024-02-21T00:43:07;2.90;;;1.20;;
79539;SDS011;76655;52.122;5.406;2024-02-21T00:45:34;3.60;;;1.17;;
79539;SDS011;76655;52.122;5.406;2024-02-21T00:48:00;3.40;;;1.27;;
79539;SDS011;76655;52.122;5.406;2024-02-21T00:50:27;2.53;;;1.00;;
79539;SDS011;76655;52.122;5.406;2024-02-21T00:52:54;2.97;;;1.20;;
79539;SDS011;76655;52.122;5.406;2024-02-21T00:55:20;3.97;;;1.30;;
79539;SDS011;76655;52.122;5.406;2024-02-21T00:57:47;3.45;;;1.20;;
79539;SDS011;76655;52.122;5.406;2024-02-21T01:00:13;1.02;;;0.73;;
79539;SDS011;76655;52.122;5.406;2024-02-21T01:02:40;2.05;;;1.23;;
79539;SDS011;76655;52.122;5.406;2024-02-21T01:05:07;3.05;;;1.05;;
79539;SDS011;76655;52.122;5.406;2024-02-21T01:07:33;3.47;;;1.25;;
79539;SDS011;76655;52.122;5.406;2024-02-21T01:10:00;2.83;;;1.30;;
79539;SDS011;76655;52.122;5.406;2024-02-21T01:12:26;1.83;;;1.15;;
79539;SDS011;76655;52.122;5.406;2024-02-21T01:14:53;3.33;;;1.10;;
79539;SDS011;76655;52.122;5.406;2024-02-21T01:17:19;2.25;;;0.93;;
79539;SDS011;76655;52.122;5.406;2024-02-21T01:19:46;3.78;;;1.15;;
79539;SDS011;76655;52.122;5.406;2024-02-21T01:22:13;3.92;;;1.17;;
79539;SDS011;76655;52.122;5.406;2024-02-21T01:24:39;2.97;;;1.23;;
79539;SDS011;76655;52.122;5.406;2024-02-21T01:27:05;2.30;;;1.02;;
79539;SDS011;76655;52.122;5.406;2024-02-21T01:29:32;3.00;;;1.15;;
79539;SDS011;76655;52.122;5.406;2024-02-21T01:31:58;2.90;;;1.25;;
79539;SDS011;76655;52.122;5.406;2024-02-21T01:34:25;2.53;;;1.38;;
79539;SDS011;76655;52.122;5.406;2024-02-21T01:36:56;3.20;;;1.30;;
79539;SDS011;76655;52.122;5.406;2024-02-21T01:39:22;2.17;;;1.20;;
79539;SDS011;76655;52.122;5.406;2024-02-21T01:41:49;3.08;;;1.38;;
79539;SDS011;76655;52.122;5.406;2024-02-21T01:44:15;2.45;;;1.23;;
79539;SDS011;76655;52.122;5.406;2024-02-21T01:46:42;3.70;;;1.30;;
79539;SDS011;76655;52.122;5.406;2024-02-21T01:49:08;2.53;;;1.20;;
79539;SDS011;76655;52.122;5.406;2024-02-21T01:51:35;3.90;;;1.30;;
79539;SDS011;76655;52.122;5.406;2024-02-21T01:54:02;3.25;;;1.13;;
79539;SDS011;76655;52.122;5.406;2024-02-21T01:56:29;2.28;;;1.15;;
79539;SDS011;76655;52.122;5.406;2024-02-21T01:58:56;3.40;;;1.20;;
79539;SDS011;76655;52.122;5.406;2024-02-21T02:01:22;2.90;;;1.00;;
79539;SDS011;76655;52.122;5.406;2024-02-21T02:03:49;4.45;;;1.20;;
79539;SDS011;76655;52.122;5.406;2024-02-21T02:06:16;2.30;;;1.15;;
79539;SDS011;76655;52.122;5.406;2024-02-21T02:08:43;2.20;;;1.23;;
79539;SDS011;76655;52.122;5.406;2024-02-21T02:11:10;3.08;;;1.33;;
79539;SDS011;76655;52.122;5.406;2024-02-21T02:13:37;2.80;;;1.30;;
79539;SDS011;76655;52.122;5.406;2024-02-21T02:16:03;3.22;;;1.20;;
79539;SDS011;76655;52.122;5.406;2024-02-21T02:18:31;2.58;;;1.13;;
79539;SDS011;76655;52.122;5.406;2024-02-21T02:20:57;2.55;;;1.10;;
79539;SDS011;76655;52.122;5.406;2024-02-21T02:23:25;5.35;;;1.60;;
79539;SDS011;76655;52.122;5.406;2024-02-21T02:25:52;3.15;;;1.25;;
79539;SDS011;76655;52.122;5.406;2024-02-21T02:28:19;3.00;;;1.25;;
79539;SDS011;76655;52.122;5.406;2024-02-21T02:30:46;3.38;;;1.52;;
79539;SDS011;76655;52.122;5.406;2024-02-21T02:33:13;2.03;;;1.15;;
79539;SDS011;76655;52.122;5.406;2024-02-21T02:35:41;4.38;;;1.48;;
79539;SDS011;76655;52.122;5.406;2024-02-21T02:38:07;2.70;;;0.90;;
79539;SDS011;76655;52.122;5.406;2024-02-21T02:40:34;3.22;;;1.20;;
79539;SDS011;76655;52.122;5.406;2024-02-21T02:43:01;2.38;;;1.20;;
79539;SDS011;76655;52.122;5.406;2024-02-21T02:45:28;2.60;;;1.20;;
79539;SDS011;76655;52.122;5.406;2024-02-21T02:47:55;3.50;;;1.30;;
79539;SDS011;76655;52.122;5.406;2024-02-21T02:50:24;4.22;;;1.48;;
79539;SDS011;76655;52.122;5.406;2024-02-21T02:52:51;4.38;;;1.30;;
79539;SDS011;76655;52.122;5.406;2024-02-21T02:55:18;1.73;;;1.13;;
79539;SDS011;76655;52.122;5.406;2024-02-21T02:57:45;1.40;;;0.90;;
79539;SDS011;76655;52.122;5.406;2024-02-21T03:00:12;2.60;;;1.20;;
79539;SDS011;76655;52.122;5.406;2024-02-21T03:02:41;3.15;;;1.00;;
79539;SDS011;76655;52.122;5.406;2024-02-21T03:05:15;2.75;;;1.02;;
79539;SDS011;76655;52.122;5.406;2024-02-21T03:07:43;2.63;;;1.05;;
79539;SDS011;76655;52.122;5.406;2024-02-21T03:10:10;2.28;;;1.20;;
79539;SDS011;76655;52.122;5.406;2024-02-21T03:12:37;3.40;;;1.30;;
79539;SDS011;76655;52.122;5.406;2024-02-21T03:15:05;2.97;;;1.35;;
79539;SDS011;76655;52.122;5.406;2024-02-21T03:17:32;2.40;;;1.10;;
79539;SDS011;76655;52.122;5.406;2024-02-21T03:20:01;2.03;;;1.00;;
79539;SDS011;76655;52.122;5.406;2024-02-21T03:22:31;2.38;;;1.10;;
79539;SDS011;76655;52.122;5.406;2024-02-21T03:25:01;3.80;;;1.63;;
79539;SDS011;76655;52.122;5.406;2024-02-21T03:27:27;2.22;;;1.05;;
79539;SDS011;76655;52.122;5.406;2024-02-21T03:29:53;2.88;;;1.08;;
79539;SDS011;76655;52.122;5.406;2024-02-21T03:32:20;2.13;;;0.90;;
79539;SDS011;76655;52.122;5.406;2024-02-21T03:34:46;2.95;;;1.40;;
79539;SDS011;76655;52.122;5.406;2024-02-21T03:37:13;3.33;;;1.30;;
79539;SDS011;76655;52.122;5.406;2024-02-21T03:39:40;2.55;;;1.20;;
79539;SDS011;76655;52.122;5.406;2024-02-21T03:42:07;2.85;;;1.00;;
79539;SDS011;76655;52.122;5.406;2024-02-21T03:44:33;3.80;;;1.20;;
79539;SDS011;76655;52.122;5.406;2024-02-21T03:47:00;2.22;;;1.30;;
79539;SDS011;76655;52.122;5.406;2024-02-21T03:49:27;4.68;;;1.27;;
79539;SDS011;76655;52.122;5.406;2024-02-21T03:51:54;3.45;;;1.17;;
79539;SDS011;76655;52.122;5.406;2024-02-21T03:54:20;2.47;;;1.23;;
79539;SDS011;76655;52.122;5.406;2024-02-21T03:56:47;2.33;;;1.20;;
79539;SDS011;76655;52.122;5.406;2024-02-21T03:59:15;1.80;;;0.93;;
79539;SDS011;76655;52.122;5.406;2024-02-21T04:01:41;2.78;;;1.40;;
79539;SDS011;76655;52.122;5.406;2024-02-21T04:04:08;3.42;;;1.30;;
79539;SDS011;76655;52.122;5.406;2024-02-21T04:06:35;2.25;;;1.40;;
79539;SDS011;76655;52.122;5.406;2024-02-21T04:09:02;2.28;;;1.42;;
79539;SDS011;76655;52.122;5.406;2024-02-21T04:11:29;2.65;;;1.20;;
79539;SDS011;76655;52.122;5.406;2024-02-21T04:13:56;2.47;;;1.38;;
79539;SDS011;76655;52.122;5.406;2024-02-21T04:16:22;3.17;;;1.05;;
79539;SDS011;76655;52.122;5.406;2024-02-21T04:18:49;3.78;;;1.30;;
79539;SDS011;76655;52.122;5.406;2024-02-21T04:21:16;2.75;;;1.30;;
79539;SDS011;76655;52.122;5.406;2024-02-21T04:23:43;2.55;;;1.17;;
79539;SDS011;76655;52.122;5.406;2024-02-21T04:26:10;2.40;;;1.48;;
79539;SDS011;76655;52.122;5.406;2024-02-21T04:28:36;2.00;;;1.15;;
79539;SDS011;76655;52.122;5.406;2024-02-21T04:31:03;3.35;;;1.35;;
79539;SDS011;76655;52.122;5.406;2024-02-21T04:33:29;2.08;;;1.10;;
79539;SDS011;76655;52.122;5.406;2024-02-21T04:35:56;1.98;;;1.13;;
79539;SDS011;76655;52.122;5.406;2024-02-21T04:38:24;2.42;;;1.27;;
79539;SDS011;76655;52.122;5.406;2024-02-21T04:40:51;3.38;;;1.20;;
79539;SDS011;76655;52.122;5.406;2024-02-21T04:43:17;2.80;;;1.40;;
79539;SDS011;76655;52.122;5.406;2024-02-21T04:45:44;3.15;;;1.23;;
79539;SDS011;76655;52.122;5.406;2024-02-21T04:48:10;2.35;;;1.20;;
79539;SDS011;76655;52.122;5.406;2024-02-21T04:50:37;1.95;;;1.25;;
79539;SDS011;76655;52.122;5.406;2024-02-21T04:53:04;2.50;;;1.20;;
79539;SDS011;76655;52.122;5.406;2024-02-21T04:55:30;2.67;;;1.30;;
79539;SDS011;76655;52.122;5.406;2024-02-21T04:57:56;3.13;;;1.25;;
79539;SDS011;76655;52.122;5.406;2024-02-21T05:00:23;3.40;;;1.40;;
79539;SDS011;76655;52.122;5.406;2024-02-21T05:02:50;2.70;;;1.23;;
79539;SDS011;76655;52.122;5.406;2024-02-21T05:05:16;3.50;;;1.30;;
79539;SDS011;76655;52.122;5.406;2024-02-21T05:07:43;3.42;;;1.38;;
79539;SDS011;76655;52.122;5.406;2024-02-21T05:10:09;4.20;;;1.40;;
79539;SDS011;76655;52.122;5.406;2024-02-21T05:12:36;3.08;;;1.33;;
79539;SDS011;76655;52.122;5.406;2024-02-21T05:15:03;3.17;;;1.80;;
79539;SDS011;76655;52.122;5.406;2024-02-21T05:17:29;3.80;;;1.23;;
79539;SDS011;76655;52.122;5.406;2024-02-21T05:19:56;1.60;;;1.10;;
79539;SDS011;76655;52.122;5.406;2024-02-21T05:22:23;2.38;;;1.20;;
79539;SDS011;76655;52.122;5.406;2024-02-21T05:24:49;2.30;;;1.08;;
79539;SDS011;76655;52.122;5.406;2024-02-21T05:27:16;3.25;;;1.10;;
79539;SDS011;76655;52.122;5.406;2024-02-21T05:29:42;2.17;;;1.17;;
79539;SDS011;76655;52.122;5.406;2024-02-21T05:32:09;2.72;;;1.27;;
79539;SDS011;76655;52.122;5.406;2024-02-21T05:34:35;3.58;;;1.38;;
79539;SDS011;76655;52.122;5.406;2024-02-21T05:37:02;1.80;;;1.45;;
79539;SDS011;76655;52.122;5.406;2024-02-21T05:39:29;3.50;;;2.05;;
79539;SDS011;76655;52.122;5.406;2024-02-21T05:41:56;2.60;;;1.30;;
79539;SDS011;76655;52.122;5.406;2024-02-21T05:44:22;2.65;;;1.35;;
79539;SDS011;76655;52.122;5.406;2024-02-21T05:46:48;1.92;;;1.20;;
79539;SDS011;76655;52.122;5.406;2024-02-21T05:49:15;3.60;;;1.20;;
79539;SDS011;76655;52.122;5.406;2024-02-21T05:51:42;4.25;;;1.45;;
79539;SDS011;76655;52.122;5.406;2024-02-21T05:54:08;2.60;;;1.40;;
79539;SDS011;76655;52.122;5.406;2024-02-21T05:56:35;1.95;;;1.30;;
79539;SDS011;76655;52.122;5.406;2024-02-21T05:59:01;4.38;;;1.52;;
79539;SDS011;76655;52.122;5.406;2024-02-21T06:01:28;3.28;;;1.63;;
79539;SDS011;76655;52.122;5.406;2024-02-21T06:03:54;3.85;;;1.48;;
79539;SDS011;76655;52.122;5.406;2024-02-21T06:06:21;2.53;;;1.20;;
79539;SDS011;76655;52.122;5.406;2024-02-21T06:08:48;3.10;;;1.55;;
79539;SDS011;76655;52.122;5.406;2024-02-21T06:11:15;3.75;;;1.30;;
79539;SDS011;76655;52.122;5.406;2024-02-21T06:13:42;2.28;;;1.30;;
79539;SDS011;76655;52.122;5.406;2024-02-21T06:16:08;2.35;;;1.33;;
79539;SDS011;76655;52.122;5.406;2024-02-21T06:18:35;3.38;;;1.48;;
79539;SDS011;76655;52.122;5.406;2024-02-21T06:21:03;2.20;;;1.30;;
79539;SDS011;76655;52.122;5.406;2024-02-21T06:23:30;3.45;;;1.20;;
79539;SDS011;76655;52.122;5.406;2024-02-21T06:25:56;2.63;;;1.42;;
79539;SDS011;76655;52.122;5.406;2024-02-21T06:28:23;2.22;;;1.45;;
79539;SDS011;76655;52.122;5.406;2024-02-21T06:30:49;3.88;;;1.38;;
79539;SDS011;76655;52.122;5.406;2024-02-21T06:33:16;2.78;;;1.38;;
79539;SDS011;76655;52.122;5.406;2024-02-21T06:35:42;3.25;;;1.50;;
79539;SDS011;76655;52.122;5.406;2024-02-21T06:38:11;3.08;;;1.30;;
79539;SDS011;76655;52.122;5.406;2024-02-21T06:40:38;2.20;;;1.40;;
79539;SDS011;76655;52.122;5.406;2024-02-21T06:43:06;3.05;;;1.50;;
79539;SDS011;76655;52.122;5.406;2024-02-21T06:45:32;3.08;;;1.38;;
79539;SDS011;76655;52.122;5.406;2024-02-21T06:47:59;3.22;;;1.63;;
79539;SDS011;76655;52.122;5.406;2024-02-21T06:50:25;3.35;;;1.42;;
79539;SDS011;76655;52.122;5.406;2024-02-21T06:52:52;2.60;;;1.50;;
79539;SDS011;76655;52.122;5.406;2024-02-21T06:55:18;5.03;;;1.48;;
79539;SDS011;76655;52.122;5.406;2024-02-21T06:57:45;3.35;;;1.48;;
79539;SDS011;76655;52.122;5.406;2024-02-21T07:00:11;2.92;;;1.50;;
79539;SDS011;76655;52.122;5.406;2024-02-21T07:02:38;2.53;;;1.50;;
79539;SDS011;76655;52.122;5.406;2024-02-21T07:05:05;3.72;;;1.70;;
79539;SDS011;76655;52.122;5.406;2024-02-21T07:07:32;3.78;;;1.65;;
79539;SDS011;76655;52.122;5.406;2024-02-21T07:09:59;4.60;;;1.95;;
79539;SDS011;76655;52.122;5.406;2024-02-21T07:12:26;4.63;;;2.08;;
79539;SDS011;76655;52.122;5.406;2024-02-21T07:14:52;2.40;;;1.60;;
79539;SDS011;76655;52.122;5.406;2024-02-21T07:17:19;3.00;;;1.70;;
79539;SDS011;76655;52.122;5.406;2024-02-21T07:19:45;3.00;;;1.73;;
79539;SDS011;76655;52.122;5.406;2024-02-21T07:22:12;3.33;;;1.70;;
79539;SDS011;76655;52.122;5.406;2024-02-21T07:24:38;7.95;;;2.03;;
79539;SDS011;76655;52.122;5.406;2024-02-21T07:27:05;4.03;;;1.80;;
79539;SDS011;76655;52.122;5.406;2024-02-21T07:29:31;6.57;;;2.00;;
79539;SDS011;76655;52.122;5.406;2024-02-21T07:31:58;3.13;;;1.70;;
79539;SDS011;76655;52.122;5.406;2024-02-21T07:34:24;4.30;;;1.98;;
79539;SDS011;76655;52.122;5.406;2024-02-21T07:36:51;3.28;;;1.90;;
79539;SDS011;76655;52.122;5.406;2024-02-21T07:39:17;5.78;;;2.15;;
79539;SDS011;76655;52.122;5.406;2024-02-21T07:41:44;5.20;;;1.80;;
79539;SDS011;76655;52.122;5.406;2024-02-21T07:44:12;4.55;;;1.60;;
79539;SDS011;76655;52.122;5.406;2024-02-21T07:46:39;4.93;;;1.75;;
79539;SDS011;76655;52.122;5.406;2024-02-21T07:49:05;8.07;;;2.25;;
79539;SDS011;76655;52.122;5.406;2024-02-21T07:51:32;4.82;;;1.95;;
79539;SDS011;76655;52.122;5.406;2024-02-21T07:53:58;4.28;;;2.20;;
79539;SDS011;76655;52.122;5.406;2024-02-21T07:56:27;3.80;;;1.95;;
79539;SDS011;76655;52.122;5.406;2024-02-21T07:58:54;5.85;;;2.10;;
79539;SDS011;76655;52.122;5.406;2024-02-21T08:01:20;3.38;;;2.20;;
79539;SDS011;76655;52.122;5.406;2024-02-21T08:03:47;3.58;;;1.88;;
79539;SDS011;76655;52.122;5.406;2024-02-21T08:06:14;4.57;;;2.03;;
79539;SDS011;76655;52.122;5.406;2024-02-21T08:08:40;3.47;;;1.80;;
79539;SDS011;76655;52.122;5.406;2024-02-21T08:11:07;4.28;;;1.85;;
79539;SDS011;76655;52.122;5.406;2024-02-21T08:13:34;3.65;;;1.80;;
79539;SDS011;76655;52.122;5.406;2024-02-21T08:16:00;3.92;;;1.73;;
79539;SDS011;76655;52.122;5.406;2024-02-21T08:18:27;3.85;;;1.85;;
79539;SDS011;76655;52.122;5.406;2024-02-21T08:20:53;4.70;;;2.15;;
79539;SDS011;76655;52.122;5.406;2024-02-21T08:23:22;5.47;;;2.38;;
79539;SDS011;76655;52.122;5.406;2024-02-21T08:25:49;6.47;;;2.70;;
79539;SDS011;76655;52.122;5.406;2024-02-21T08:28:16;5.10;;;2.30;;
79539;SDS011;76655;52.122;5.406;2024-02-21T08:30:42;7.10;;;2.50;;
79539;SDS011;76655;52.122;5.406;2024-02-21T08:33:15;2.45;;;1.52;;
79539;SDS011;76655;52.122;5.406;2024-02-21T08:35:42;3.40;;;2.03;;
79539;SDS011;76655;52.122;5.406;2024-02-21T08:38:09;5.78;;;2.08;;
79539;SDS011;76655;52.122;5.406;2024-02-21T08:40:36;4.22;;;2.30;;
79539;SDS011;76655;52.122;5.406;2024-02-21T08:43:03;4.00;;;2.08;;
79539;SDS011;76655;52.122;5.406;2024-02-21T08:45:29;3.58;;;2.17;;
79539;SDS011;76655;52.122;5.406;2024-02-21T08:47:58;3.38;;;2.10;;
79539;SDS011;76655;52.122;5.406;2024-02-21T08:50:24;3.90;;;2.63;;
79539;SDS011;76655;52.122;5.406;2024-02-21T08:52:54;5.50;;;2.50;;
79539;SDS011;76655;52.122;5.406;2024-02-21T08:55:21;4.40;;;2.22;;
79539;SDS011;76655;52.122;5.406;2024-02-21T08:57:48;5.95;;;2.40;;
79539;SDS011;76655;52.122;5.406;2024-02-21T09:00:15;5.28;;;2.22;;
79539;SDS011;76655;52.122;5.406;2024-02-21T09:02:42;5.60;;;2.35;;
79539;SDS011;76655;52.122;5.406;2024-02-21T09:05:11;5.18;;;2.30;;
79539;SDS011;76655;52.122;5.406;2024-02-21T09:07:38;4.10;;;2.10;;
79539;SDS011;76655;52.122;5.406;2024-02-21T09:10:05;7.10;;;2.22;;
79539;SDS011;76655;52.122;5.406;2024-02-21T09:12:32;4.25;;;2.20;;
79539;SDS011;76655;52.122;5.406;2024-02-21T09:14:59;5.95;;;2.40;;
79539;SDS011;76655;52.122;5.406;2024-02-21T09:17:25;3.95;;;1.95;;
79539;SDS011;76655;52.122;5.406;2024-02-21T09:19:52;5.38;;;3.17;;
79539;SDS011;76655;52.122;5.406;2024-02-21T09:22:21;5.13;;;2.33;;
79539;SDS011;76655;52.122;5.406;2024-02-21T09:24:47;4.57;;;2.35;;
79539;SDS011;76655;52.122;5.406;2024-02-21T09:27:14;4.30;;;1.88;;
79539;SDS011;76655;52.122;5.406;2024-02-21T09:29:40;5.68;;;2.10;;
79539;SDS011;76655;52.122;5.406;2024-02-21T09:32:07;4.63;;;2.20;;
79539;SDS011;76655;52.122;5.406;2024-02-21T09:34:34;2.80;;;1.80;;
79539;SDS011;76655;52.122;5.406;2024-02-21T09:37:01;5.45;;;2.45;;
79539;SDS011;76655;52.122;5.406;2024-02-21T09:39:27;4.57;;;1.98;;
79539;SDS011;76655;52.122;5.406;2024-02-21T09:41:56;6.20;;;2.50;;
79539;SDS011;76655;52.122;5.406;2024-02-21T09:44:26;4.68;;;2.08;;
79539;SDS011;76655;52.122;5.406;2024-02-21T09:47:02;4.63;;;2.05;;
79539;SDS011;76655;52.122;5.406;2024-02-21T09:49:31;4.28;;;1.80;;
79539;SDS011;76655;52.122;5.406;2024-02-21T09:52:05;4.38;;;2.00;;
79539;SDS011;76655;52.122;5.406;2024-02-21T09:54:33;5.85;;;2.03;;
79539;SDS011;76655;52.122;5.406;2024-02-21T09:57:00;5.90;;;2.03;;
79539;SDS011;76655;52.122;5.406;2024-02-21T09:59:28;3.30;;;1.98;;
79539;SDS011;76655;52.122;5.406;2024-02-21T10:01:56;4.93;;;2.20;;
79539;SDS011;76655;52.122;5.406;2024-02-21T10:04:23;3.72;;;1.80;;
79539;SDS011;76655;52.122;5.406;2024-02-21T10:06:49;3.67;;;1.83;;
79539;SDS011;76655;52.122;5.406;2024-02-21T10:09:35;4.70;;;2.08;;
79539;SDS011;76655;52.122;5.406;2024-02-21T10:12:08;3.13;;;2.00;;
79539;SDS011;76655;52.122;5.406;2024-02-21T10:14:36;3.72;;;2.10;;
79539;SDS011;76655;52.122;5.406;2024-02-21T10:17:03;4.30;;;1.80;;
79539;SDS011;76655;52.122;5.406;2024-02-21T10:19:35;4.40;;;1.83;;
79539;SDS011;76655;52.122;5.406;2024-02-21T10:24:30;4.05;;;1.83;;
79539;SDS011;76655;52.122;5.406;2024-02-21T10:27:02;3.50;;;1.75;;
79539;SDS011;76655;52.122;5.406;2024-02-21T10:29:30;4.32;;;1.80;;
79539;SDS011;76655;52.122;5.406;2024-02-21T10:32:04;4.13;;;1.90;;
79539;SDS011;76655;52.122;5.406;2024-02-21T10:34:35;3.38;;;1.73;;
79539;SDS011;76655;52.122;5.406;2024-02-21T10:37:02;2.75;;;1.63;;
79539;SDS011;76655;52.122;5.406;2024-02-21T10:39:31;3.72;;;1.88;;
79539;SDS011;76655;52.122;5.406;2024-02-21T10:42:01;4.20;;;1.80;;
79539;SDS011;76655;52.122;5.406;2024-02-21T10:44:36;3.95;;;1.80;;
79539;SDS011;76655;52.122;5.406;2024-02-21T10:47:06;4.05;;;2.03;;
79539;SDS011;76655;52.122;5.406;2024-02-21T10:49:39;3.50;;;1.55;;
79539;SDS011;76655;52.122;5.406;2024-02-21T10:55:03;3.50;;;1.90;;
79539;SDS011;76655;52.122;5.406;2024-02-21T10:57:36;3.22;;;1.60;;
79539;SDS011;76655;52.122;5.406;2024-02-21T11:00:04;3.53;;;1.80;;
79539;SDS011;76655;52.122;5.406;2024-02-21T11:02:34;3.10;;;1.65;;
79539;SDS011;76655;52.122;5.406;2024-02-21T11:05:01;5.32;;;1.98;;
79539;SDS011;76655;52.122;5.406;2024-02-21T11:07:29;4.28;;;1.70;;
79539;SDS011;76655;52.122;5.406;2024-02-21T11:09:59;4.28;;;1.65;;
79539;SDS011;76655;52.122;5.406;2024-02-21T11:12:26;3.55;;;1.55;;
79539;SDS011;76655;52.122;5.406;2024-02-21T11:15:03;2.83;;;1.38;;
79539;SDS011;76655;52.122;5.406;2024-02-21T11:17:31;4.35;;;1.70;;
79539;SDS011;76655;52.122;5.406;2024-02-21T11:19:57;2.35;;;1.40;;
79539;SDS011;76655;52.122;5.406;2024-02-21T11:22:25;3.97;;;1.80;;
79539;SDS011;76655;52.122;5.406;2024-02-21T11:24:55;3.60;;;1.58;;
79539;SDS011;76655;52.122;5.406;2024-02-21T11:27:33;2.53;;;1.20;;
79539;SDS011;76655;52.122;5.406;2024-02-21T11:29:59;4.50;;;1.77;;
79539;SDS011;76655;52.122;5.406;2024-02-21T11:32:26;2.00;;;1.33;;
79539;SDS011;76655;52.122;5.406;2024-02-21T11:34:56;2.33;;;1.65;;
79539;SDS011;76655;52.122;5.406;2024-02-21T11:37:34;3.78;;;2.30;;
79539;SDS011;76655;52.122;5.406;2024-02-21T11:40:03;2.38;;;1.75;;
79539;SDS011;76655;52.122;5.406;2024-02-21T11:42:30;4.80;;;1.63;;
79539;SDS011;76655;52.122;5.406;2024-02-21T11:44:59;3.70;;;2.17;;
79539;SDS011;76655;52.122;5.406;2024-02-21T11:47:28;6.32;;;2.30;;
79539;SDS011;76655;52.122;5.406;2024-02-21T11:49:55;5.53;;;2.35;;
79539;SDS011;76655;52.122;5.406;2024-02-21T11:52:22;6.70;;;2.80;;
79539;SDS011;76655;52.122;5.406;2024-02-21T11:54:51;5.68;;;2.40;;
79539;SDS011;76655;52.122;5.406;2024-02-21T11:57:23;9.52;;;2.67;;
79539;SDS011;76655;52.122;5.406;2024-02-21T11:59:50;5.70;;;2.20;;
79539;SDS011;76655;52.122;5.406;2024-02-21T12:02:24;6.95;;;2.92;;
79539;SDS011;76655;52.122;5.406;2024-02-21T12:04:51;8.00;;;2.90;;
79539;SDS011;76655;52.122;5.406;2024-02-21T12:07:18;4.50;;;2.42;;
79539;SDS011;76655;52.122;5.406;2024-02-21T12:09:45;5.38;;;2.75;;
79539;SDS011;76655;52.122;5.406;2024-02-21T12:12:12;5.70;;;2.30;;
79539;SDS011;76655;52.122;5.406;2024-02-21T12:14:38;5.18;;;2.50;;
79539;SDS011;76655;52.122;5.406;2024-02-21T12:17:05;4.40;;;2.05;;
79539;SDS011;76655;52.122;5.406;2024-02-21T12:19:32;7.00;;;2.13;;
79539;SDS011;76655;52.122;5.406;2024-02-21T12:22:00;5.18;;;1.98;;
79539;SDS011;76655;52.122;5.406;2024-02-21T12:24:28;4.60;;;2.08;;
79539;SDS011;76655;52.122;5.406;2024-02-21T12:26:56;5.35;;;2.67;;
79539;SDS011;76655;52.122;5.406;2024-02-21T12:29:24;4.88;;;2.22;;
79539;SDS011;76655;52.122;5.406;2024-02-21T12:31:51;5.05;;;1.92;;
79539;SDS011;76655;52.122;5.406;2024-02-21T12:34:20;6.78;;;2.15;;
79539;SDS011;76655;52.122;5.406;2024-02-21T12:37:03;5.70;;;2.30;;
79539;SDS011;76655;52.122;5.406;2024-02-21T12:39:30;5.07;;;2.55;;
79539;SDS011;76655;52.122;5.406;2024-02-21T12:41:57;4.88;;;2.08;;
79539;SDS011;76655;52.122;5.406;2024-02-21T12:44:24;5.47;;;1.90;;
79539;SDS011;76655;52.122;5.406;2024-02-21T12:46:51;5.55;;;2.10;;
79539;SDS011;76655;52.122;5.406;2024-02-21T12:49:20;4.32;;;2.00;;
79539;SDS011;76655;52.122;5.406;2024-02-21T12:51:46;5.32;;;2.08;;
79539;SDS011;76655;52.122;5.406;2024-02-21T12:54:13;3.95;;;2.13;;
79539;SDS011;76655;52.122;5.406;2024-02-21T12:56:39;3.60;;;1.60;;
79539;SDS011;76655;52.122;5.406;2024-02-21T12:59:06;7.15;;;2.10;;
79539;SDS011;76655;52.122;5.406;2024-02-21T13:01:36;3.15;;;1.60;;
79539;SDS011;76655;52.122;5.406;2024-02-21T13:04:04;7.07;;;1.83;;
79539;SDS011;76655;52.122;5.406;2024-02-21T13:06:31;3.83;;;1.77;;
79539;SDS011;76655;52.122;5.406;2024-02-21T13:08:58;4.72;;;2.25;;
79539;SDS011;76655;52.122;5.406;2024-02-21T13:11:25;4.45;;;1.60;;
79539;SDS011;76655;52.122;5.406;2024-02-21T13:13:54;3.40;;;2.38;;
79539;SDS011;76655;52.122;5.406;2024-02-21T13:16:21;3.65;;;1.77;;
79539;SDS011;76655;52.122;5.406;2024-02-21T13:18:48;4.75;;;1.60;;
79539;SDS011;76655;52.122;5.406;2024-02-21T13:21:15;2.92;;;1.70;;
79539;SDS011;76655;52.122;5.406;2024-02-21T13:23:42;5.68;;;1.80;;
79539;SDS011;76655;52.122;5.406;2024-02-21T13:26:10;3.58;;;1.65;;
79539;SDS011;76655;52.122;5.406;2024-02-21T13:28:37;4.32;;;2.08;;
79539;SDS011;76655;52.122;5.406;2024-02-21T13:31:04;2.97;;;1.40;;
79539;SDS011;76655;52.122;5.406;2024-02-21T13:33:30;3.08;;;1.75;;
79539;SDS011;76655;52.122;5.406;2024-02-21T13:35:57;4.32;;;1.60;;
79539;SDS011;76655;52.122;5.406;2024-02-21T13:38:24;2.85;;;1.63;;
79539;SDS011;76655;52.122;5.406;2024-02-21T13:40:51;2.97;;;1.40;;
79539;SDS011;76655;52.122;5.406;2024-02-21T13:43:17;3.17;;;1.85;;
79539;SDS011;76655;52.122;5.406;2024-02-21T13:45:45;3.92;;;1.60;;
79539;SDS011;76655;52.122;5.406;2024-02-21T13:48:22;2.90;;;1.42;;
79539;SDS011;76655;52.122;5.406;2024-02-21T13:50:49;4.80;;;1.65;;
79539;SDS011;76655;52.122;5.406;2024-02-21T13:53:16;2.42;;;1.17;;
79539;SDS011;76655;52.122;5.406;2024-02-21T13:55:46;3.38;;;1.42;;
79539;SDS011;76655;52.122;5.406;2024-02-21T13:58:13;5.00;;;1.58;;
79539;SDS011;76655;52.122;5.406;2024-02-21T14:00:40;3.83;;;1.65;;
79539;SDS011;76655;52.122;5.406;2024-02-21T14:03:06;4.40;;;2.00;;
79539;SDS011;76655;52.122;5.406;2024-02-21T14:05:33;2.90;;;1.45;;
79539;SDS011;76655;52.122;5.406;2024-02-21T14:07:59;2.55;;;1.23;;
79539;SDS011;76655;52.122;5.406;2024-02-21T14:10:26;3.60;;;1.58;;
79539;SDS011;76655;52.122;5.406;2024-02-21T14:12:52;4.57;;;1.70;;
79539;SDS011;76655;52.122;5.406;2024-02-21T14:15:19;3.47;;;1.40;;
79539;SDS011;76655;52.122;5.406;2024-02-21T14:17:45;2.13;;;1.30;;
79539;SDS011;76655;52.122;5.406;2024-02-21T14:20:12;2.88;;;1.40;;
79539;SDS011;76655;52.122;5.406;2024-02-21T14:22:43;4.40;;;1.50;;
79539;SDS011;76655;52.122;5.406;2024-02-21T14:25:10;3.55;;;2.00;;
79539;SDS011;76655;52.122;5.406;2024-02-21T14:27:36;4.35;;;1.55;;
79539;SDS011;76655;52.122;5.406;2024-02-21T14:30:03;3.47;;;1.60;;
79539;SDS011;76655;52.122;5.406;2024-02-21T14:32:30;4.88;;;1.83;;
79539;SDS011;76655;52.122;5.406;2024-02-21T14:34:56;3.97;;;1.48;;
79539;SDS011;76655;52.122;5.406;2024-02-21T14:37:25;3.75;;;1.83;;
79539;SDS011;76655;52.122;5.406;2024-02-21T14:39:52;4.15;;;1.35;;
79539;SDS011;76655;52.122;5.406;2024-02-21T14:42:18;2.65;;;1.40;;
79539;SDS011;76655;52.122;5.406;2024-02-21T14:44:45;4.20;;;1.60;;
79539;SDS011;76655;52.122;5.406;2024-02-21T14:47:11;8.10;;;1.98;;
79539;SDS011;76655;52.122;5.406;2024-02-21T14:49:38;3.50;;;1.38;;
79539;SDS011;76655;52.122;5.406;2024-02-21T14:52:04;4.38;;;1.65;;
79539;SDS011;76655;52.122;5.406;2024-02-21T14:54:31;3.65;;;1.77;;